sensor_id;sensor_type;location;lat;lon;timestamp;pressure;altitude;pressure_sealevel;temperature;humidity
80333;BME280;69652;51.864;-2.246;2023-07-09T00:00:50;101634.44;;;16.80;91.98
80333;BME280;69652;51.864;-2.246;2023-07-09T00:03:17;101624.75;;;16.82;91.52
80333;BME280;69652;51.864;-2.246;2023-07-09T00:05:46;101604.44;;;16.75;90.42
80333;BME280;69652;51.864;-2.246;2023-07-09T00:08:30;101609.75;;;16.80;90.44
80333;BME280;69652;51.864;-2.246;2023-07-09T00:10:57;101618.28;;;16.78;91.25
80333;BME280;69652;51.864;-2.246;2023-07-09T00:13:24;101627.00;;;16.80;91.99
80333;BME280;69652;51.864;-2.246;2023-07-09T00:15:50;101623.94;;;16.82;91.59
80333;BME280;69652;51.864;-2.246;2023-07-09T00:18:16;101626.38;;;16.75;91.42
80333;BME280;69652;51.864;-2.246;2023-07-09T00:20:42;101627.03;;;16.63;90.46
80333;BME280;69652;51.864;-2.246;2023-07-09T00:23:11;101623.28;;;16.59;91.35
80333;BME280;69652;51.864;-2.246;2023-07-09T00:25:42;101628.16;;;16.62;91.98
80333;BME280;69652;51.864;-2.246;2023-07-09T00:28:17;101628.91;;;16.54;91.81
80333;BME280;69652;51.864;-2.246;2023-07-09T00:30:47;101626.66;;;16.47;90.46
80333;BME280;69652;51.864;-2.246;2023-07-09T00:33:14;101625.03;;;16.46;90.77
80333;BME280;69652;51.864;-2.246;2023-07-09T00:35:44;101620.34;;;16.55;91.74
80333;BME280;69652;51.864;-2.246;2023-07-09T00:38:18;101623.75;;;16.61;92.00
80333;BME280;69652;51.864;-2.246;2023-07-09T00:40:47;101627.03;;;16.63;90.36
80333;BME280;69652;51.864;-2.246;2023-07-09T00:43:15;101633.44;;;16.58;89.99
80333;BME280;69652;51.864;-2.246;2023-07-09T00:45:41;101640.34;;;16.56;90.23
80333;BME280;69652;51.864;-2.246;2023-07-09T00:48:13;101637.91;;;16.37;89.47
80333;BME280;69652;51.864;-2.246;2023-07-09T00:50:47;101640.97;;;16.27;90.04
80333;BME280;69652;51.864;-2.246;2023-07-09T00:53:18;101649.34;;;16.31;90.91
80333;BME280;69652;51.864;-2.246;2023-07-09T00:56:08;101654.16;;;16.25;89.94
80333;BME280;69652;51.864;-2.246;2023-07-09T00:58:36;101657.41;;;16.36;90.36
80333;BME280;69652;51.864;-2.246;2023-07-09T01:01:04;101648.56;;;16.39;89.66
80333;BME280;69652;51.864;-2.246;2023-07-09T01:03:40;101652.09;;;16.39;90.96
80333;BME280;69652;51.864;-2.246;2023-07-09T01:06:08;101642.09;;;16.43;91.06
80333;BME280;69652;51.864;-2.246;2023-07-09T01:08:36;101642.28;;;16.38;90.48
80333;BME280;69652;51.864;-2.246;2023-07-09T01:11:03;101651.75;;;16.32;89.99
80333;BME280;69652;51.864;-2.246;2023-07-09T01:13:30;101651.13;;;16.35;90.61
80333;BME280;69652;51.864;-2.246;2023-07-09T01:15:58;101640.16;;;16.44;91.88
80333;BME280;69652;51.864;-2.246;2023-07-09T01:18:23;101640.00;;;16.40;89.93
80333;BME280;69652;51.864;-2.246;2023-07-09T01:20:51;101639.19;;;16.31;89.44
80333;BME280;69652;51.864;-2.246;2023-07-09T01:23:18;101649.03;;;16.32;91.42
80333;BME280;69652;51.864;-2.246;2023-07-09T01:25:46;101650.31;;;16.35;92.03
80333;BME280;69652;51.864;-2.246;2023-07-09T01:28:18;101647.09;;;16.33;91.03
80333;BME280;69652;51.864;-2.246;2023-07-09T01:30:43;101655.81;;;16.35;91.78
80333;BME280;69652;51.864;-2.246;2023-07-09T01:33:09;101656.91;;;16.25;90.25
80333;BME280;69652;51.864;-2.246;2023-07-09T01:35:37;101649.31;;;16.22;91.35
80333;BME280;69652;51.864;-2.246;2023-07-09T01:38:06;101656.41;;;16.23;91.47
80333;BME280;69652;51.864;-2.246;2023-07-09T01:40:32;101656.09;;;16.24;91.41
80333;BME280;69652;51.864;-2.246;2023-07-09T01:42:58;101647.56;;;16.26;90.90
80333;BME280;69652;51.864;-2.246;2023-07-09T01:45:24;101647.56;;;16.26;89.97
80333;BME280;69652;51.864;-2.246;2023-07-09T01:47:50;101650.31;;;16.26;91.44
80333;BME280;69652;51.864;-2.246;2023-07-09T01:50:19;101644.16;;;16.20;90.68
80333;BME280;69652;51.864;-2.246;2023-07-09T01:52:45;101643.34;;;16.20;92.05
80333;BME280;69652;51.864;-2.246;2023-07-09T01:55:13;101637.53;;;16.13;90.21
80333;BME280;69652;51.864;-2.246;2023-07-09T01:57:42;101641.53;;;16.07;89.43
80333;BME280;69652;51.864;-2.246;2023-07-09T02:00:13;101648.28;;;16.01;90.33
80333;BME280;69652;51.864;-2.246;2023-07-09T02:02:45;101649.53;;;15.95;89.80
80333;BME280;69652;51.864;-2.246;2023-07-09T02:05:17;101651.47;;;15.94;89.18
80333;BME280;69652;51.864;-2.246;2023-07-09T02:07:43;101652.13;;;15.91;89.12
80333;BME280;69652;51.864;-2.246;2023-07-09T02:10:09;101651.63;;;15.89;90.19
80333;BME280;69652;51.864;-2.246;2023-07-09T02:12:35;101655.81;;;15.86;89.51
80333;BME280;69652;51.864;-2.246;2023-07-09T02:15:01;101652.75;;;15.88;89.52
80333;BME280;69652;51.864;-2.246;2023-07-09T02:17:26;101658.53;;;15.86;90.95
80333;BME280;69652;51.864;-2.246;2023-07-09T02:19:51;101664.66;;;15.83;89.13
80333;BME280;69652;51.864;-2.246;2023-07-09T02:22:17;101659.31;;;15.78;88.84
80333;BME280;69652;51.864;-2.246;2023-07-09T02:24:44;101665.41;;;15.75;88.38
80333;BME280;69652;51.864;-2.246;2023-07-09T02:27:10;101661.25;;;15.78;89.67
80333;BME280;69652;51.864;-2.246;2023-07-09T02:29:36;101659.31;;;15.78;90.46
80333;BME280;69652;51.864;-2.246;2023-07-09T02:32:03;101663.50;;;15.76;90.40
80333;BME280;69652;51.864;-2.246;2023-07-09T02:34:30;101664.94;;;15.73;88.49
80333;BME280;69652;51.864;-2.246;2023-07-09T02:36:57;101657.84;;;15.72;88.99
80333;BME280;69652;51.864;-2.246;2023-07-09T02:39:24;101665.22;;;15.72;88.93
80333;BME280;69652;51.864;-2.246;2023-07-09T02:41:50;101663.97;;;15.69;88.84
80333;BME280;69652;51.864;-2.246;2023-07-09T02:44:15;101671.53;;;15.72;89.10
80333;BME280;69652;51.864;-2.246;2023-07-09T02:46:41;101661.38;;;15.73;89.94
80333;BME280;69652;51.864;-2.246;2023-07-09T02:49:08;101648.81;;;15.72;89.51
80333;BME280;69652;51.864;-2.246;2023-07-09T02:51:34;101656.72;;;15.73;89.74
80333;BME280;69652;51.864;-2.246;2023-07-09T02:54:01;101657.69;;;15.69;88.96
80333;BME280;69652;51.864;-2.246;2023-07-09T02:56:27;101649.63;;;15.72;89.76
80333;BME280;69652;51.864;-2.246;2023-07-09T02:58:53;101652.50;;;15.67;89.16
80333;BME280;69652;51.864;-2.246;2023-07-09T03:01:19;101660.88;;;15.71;90.24
80333;BME280;69652;51.864;-2.246;2023-07-09T03:03:59;101665.88;;;15.69;90.13
80333;BME280;69652;51.864;-2.246;2023-07-09T03:06:25;101659.25;;;15.70;90.32
80333;BME280;69652;51.864;-2.246;2023-07-09T03:08:51;101647.53;;;15.69;90.07
80333;BME280;69652;51.864;-2.246;2023-07-09T03:11:17;101639.94;;;15.66;89.88
80333;BME280;69652;51.864;-2.246;2023-07-09T03:13:43;101648.78;;;15.63;89.03
80333;BME280;69652;51.864;-2.246;2023-07-09T03:16:09;101656.69;;;15.65;88.83
80333;BME280;69652;51.864;-2.246;2023-07-09T03:18:35;101662.16;;;15.65;89.30
80333;BME280;69652;51.864;-2.246;2023-07-09T03:21:00;101661.97;;;15.61;89.10
80333;BME280;69652;51.864;-2.246;2023-07-09T03:23:26;101659.72;;;15.63;90.00
80333;BME280;69652;51.864;-2.246;2023-07-09T03:25:52;101655.19;;;15.59;88.68
80333;BME280;69652;51.864;-2.246;2023-07-09T03:28:18;101651.63;;;15.58;89.14
80333;BME280;69652;51.864;-2.246;2023-07-09T03:30:48;101651.81;;;15.62;91.14
80333;BME280;69652;51.864;-2.246;2023-07-09T03:33:15;101661.97;;;15.61;89.50
80333;BME280;69652;51.864;-2.246;2023-07-09T03:35:41;101668.56;;;15.60;89.50
80333;BME280;69652;51.864;-2.246;2023-07-09T03:38:08;101667.75;;;15.60;90.06
80333;BME280;69652;51.864;-2.246;2023-07-09T03:40:34;101670.19;;;15.61;90.30
80333;BME280;69652;51.864;-2.246;2023-07-09T03:43:00;101677.88;;;15.59;89.03
80333;BME280;69652;51.864;-2.246;2023-07-09T03:45:25;101679.66;;;15.55;88.96
80333;BME280;69652;51.864;-2.246;2023-07-09T03:47:51;101674.69;;;15.57;89.61
80333;BME280;69652;51.864;-2.246;2023-07-09T03:50:16;101676.91;;;15.55;90.04
80333;BME280;69652;51.864;-2.246;2023-07-09T03:52:42;101672.53;;;15.54;90.40
80333;BME280;69652;51.864;-2.246;2023-07-09T03:55:08;101666.78;;;15.56;90.47
80333;BME280;69652;51.864;-2.246;2023-07-09T03:57:35;101669.69;;;15.59;90.00
80333;BME280;69652;51.864;-2.246;2023-07-09T04:00:02;101667.06;;;15.54;90.61
80333;BME280;69652;51.864;-2.246;2023-07-09T04:02:28;101650.63;;;15.54;90.40
80333;BME280;69652;51.864;-2.246;2023-07-09T04:04:53;101654.22;;;15.55;90.41
80333;BME280;69652;51.864;-2.246;2023-07-09T04:07:19;101646.50;;;15.57;90.57
80333;BME280;69652;51.864;-2.246;2023-07-09T04:09:45;101665.66;;;15.57;90.29
80333;BME280;69652;51.864;-2.246;2023-07-09T04:12:10;101652.38;;;15.50;88.75
80333;BME280;69652;51.864;-2.246;2023-07-09T04:14:36;101646.59;;;15.51;90.95
80333;BME280;69652;51.864;-2.246;2023-07-09T04:17:02;101638.38;;;15.51;89.96
80333;BME280;69652;51.864;-2.246;2023-07-09T04:19:27;101645.47;;;15.52;90.79
80333;BME280;69652;51.864;-2.246;2023-07-09T04:21:53;101643.06;;;15.51;90.04
80333;BME280;69652;51.864;-2.246;2023-07-09T04:24:19;101663.81;;;15.52;90.98
80333;BME280;69652;51.864;-2.246;2023-07-09T04:26:45;101652.88;;;15.52;90.18
80333;BME280;69652;51.864;-2.246;2023-07-09T04:29:10;101667.19;;;15.49;90.18
80333;BME280;69652;51.864;-2.246;2023-07-09T04:31:36;101677.63;;;15.47;89.41
80333;BME280;69652;51.864;-2.246;2023-07-09T04:34:03;101685.03;;;15.46;90.18
80333;BME280;69652;51.864;-2.246;2023-07-09T04:36:28;101693.06;;;15.43;89.98
80333;BME280;69652;51.864;-2.246;2023-07-09T04:38:54;101693.06;;;15.43;90.90
80333;BME280;69652;51.864;-2.246;2023-07-09T04:41:19;101684.84;;;15.43;90.38
80333;BME280;69652;51.864;-2.246;2023-07-09T04:43:45;101689.22;;;15.44;91.69
80333;BME280;69652;51.864;-2.246;2023-07-09T04:46:10;101688.56;;;15.47;90.38
80333;BME280;69652;51.864;-2.246;2023-07-09T04:48:36;101695.84;;;15.51;91.48
80333;BME280;69652;51.864;-2.246;2023-07-09T04:51:01;101679.94;;;15.53;91.50
80333;BME280;69652;51.864;-2.246;2023-07-09T04:53:27;101691.91;;;15.58;91.12
80333;BME280;69652;51.864;-2.246;2023-07-09T04:55:52;101677.28;;;15.62;91.38
80333;BME280;69652;51.864;-2.246;2023-07-09T04:58:18;101681.63;;;15.63;91.30
80333;BME280;69652;51.864;-2.246;2023-07-09T05:00:44;101678.06;;;15.63;90.14
80333;BME280;69652;51.864;-2.246;2023-07-09T05:03:11;101681.97;;;15.70;90.97
80333;BME280;69652;51.864;-2.246;2023-07-09T05:05:42;101687.31;;;15.75;91.36
80333;BME280;69652;51.864;-2.246;2023-07-09T05:08:08;101688.44;;;15.74;91.52
80333;BME280;69652;51.864;-2.246;2023-07-09T05:10:33;101681.66;;;15.72;90.96
80333;BME280;69652;51.864;-2.246;2023-07-09T05:12:59;101690.38;;;15.74;90.68
80333;BME280;69652;51.864;-2.246;2023-07-09T05:15:24;101692.19;;;15.78;90.47
80333;BME280;69652;51.864;-2.246;2023-07-09T05:17:50;101680.41;;;15.78;91.42
80333;BME280;69652;51.864;-2.246;2023-07-09T05:20:17;101684.78;;;15.79;90.01
80333;BME280;69652;51.864;-2.246;2023-07-09T05:22:42;101690.41;;;15.82;90.53
80333;BME280;69652;51.864;-2.246;2023-07-09T05:25:08;101679.78;;;15.81;90.07
80333;BME280;69652;51.864;-2.246;2023-07-09T05:27:34;101671.13;;;15.87;89.88
80333;BME280;69652;51.864;-2.246;2023-07-09T05:29:59;101659.69;;;15.94;89.81
80333;BME280;69652;51.864;-2.246;2023-07-09T05:32:25;101669.56;;;16.04;90.80
80333;BME280;69652;51.864;-2.246;2023-07-09T05:34:51;101685.34;;;16.07;89.67
80333;BME280;69652;51.864;-2.246;2023-07-09T05:37:16;101695.50;;;16.06;88.82
80333;BME280;69652;51.864;-2.246;2023-07-09T05:39:42;101675.41;;;16.11;89.27
80333;BME280;69652;51.864;-2.246;2023-07-09T05:42:07;101658.66;;;16.12;89.50
80333;BME280;69652;51.864;-2.246;2023-07-09T05:44:33;101673.97;;;16.13;89.66
80333;BME280;69652;51.864;-2.246;2023-07-09T05:46:58;101677.50;;;16.14;89.02
80333;BME280;69652;51.864;-2.246;2023-07-09T05:49:24;101685.75;;;16.22;89.47
80333;BME280;69652;51.864;-2.246;2023-07-09T05:51:49;101682.19;;;16.22;90.40
80333;BME280;69652;51.864;-2.246;2023-07-09T05:54:14;101693.44;;;16.12;88.79
80333;BME280;69652;51.864;-2.246;2023-07-09T05:56:40;101704.25;;;16.17;89.38
80333;BME280;69652;51.864;-2.246;2023-07-09T05:59:06;101710.38;;;16.14;87.89
80333;BME280;69652;51.864;-2.246;2023-07-09T06:01:31;101704.41;;;16.20;89.19
80333;BME280;69652;51.864;-2.246;2023-07-09T06:03:57;101711.34;;;16.18;88.58
80333;BME280;69652;51.864;-2.246;2023-07-09T06:06:23;101717.47;;;16.15;88.67
80333;BME280;69652;51.864;-2.246;2023-07-09T06:08:49;101720.34;;;16.18;89.25
80333;BME280;69652;51.864;-2.246;2023-07-09T06:11:15;101718.13;;;16.20;89.13
80333;BME280;69652;51.864;-2.246;2023-07-09T06:13:43;101728.88;;;16.17;88.34
80333;BME280;69652;51.864;-2.246;2023-07-09T06:16:08;101741.47;;;16.18;87.63
80333;BME280;69652;51.864;-2.246;2023-07-09T06:18:34;101737.91;;;16.17;89.55
80333;BME280;69652;51.864;-2.246;2023-07-09T06:21:01;101740.84;;;16.21;88.04
80333;BME280;69652;51.864;-2.246;2023-07-09T06:23:27;101747.94;;;16.22;88.70
80333;BME280;69652;51.864;-2.246;2023-07-09T06:25:52;101755.84;;;16.23;88.23
80333;BME280;69652;51.864;-2.246;2023-07-09T06:28:21;101750.38;;;16.32;89.37
80333;BME280;69652;51.864;-2.246;2023-07-09T06:30:47;101742.03;;;16.37;87.80
80333;BME280;69652;51.864;-2.246;2023-07-09T06:33:14;101734.50;;;16.51;87.56
80333;BME280;69652;51.864;-2.246;2023-07-09T06:35:49;101731.28;;;16.58;86.88
80333;BME280;69652;51.864;-2.246;2023-07-09T06:38:16;101734.22;;;16.61;86.08
80333;BME280;69652;51.864;-2.246;2023-07-09T06:40:42;101720.72;;;16.74;88.54
80333;BME280;69652;51.864;-2.246;2023-07-09T06:43:08;101732.94;;;16.76;85.97
80333;BME280;69652;51.864;-2.246;2023-07-09T06:45:33;101739.06;;;16.65;84.76
80333;BME280;69652;51.864;-2.246;2023-07-09T06:48:00;101737.91;;;16.57;84.03
80333;BME280;69652;51.864;-2.246;2023-07-09T06:50:25;101725.50;;;16.59;85.36
80333;BME280;69652;51.864;-2.246;2023-07-09T06:52:51;101711.50;;;16.78;86.28
80333;BME280;69652;51.864;-2.246;2023-07-09T06:55:17;101714.13;;;16.83;84.76
80333;BME280;69652;51.864;-2.246;2023-07-09T06:57:42;101737.16;;;16.74;85.50
80333;BME280;69652;51.864;-2.246;2023-07-09T07:00:08;101756.44;;;16.51;82.33
80333;BME280;69652;51.864;-2.246;2023-07-09T07:02:34;101754.78;;;16.42;83.07
80333;BME280;69652;51.864;-2.246;2023-07-09T07:04:59;101750.06;;;16.34;82.22
80333;BME280;69652;51.864;-2.246;2023-07-09T07:07:25;101747.66;;;16.41;86.34
80333;BME280;69652;51.864;-2.246;2023-07-09T07:09:50;101746.22;;;16.43;87.42
80333;BME280;69652;51.864;-2.246;2023-07-09T07:12:27;101758.97;;;16.39;83.22
80333;BME280;69652;51.864;-2.246;2023-07-09T07:14:54;101750.91;;;16.43;84.14
80333;BME280;69652;51.864;-2.246;2023-07-09T07:17:20;101745.91;;;16.45;85.54
80333;BME280;69652;51.864;-2.246;2023-07-09T07:19:46;101749.28;;;16.42;84.61
80333;BME280;69652;51.864;-2.246;2023-07-09T07:22:11;101761.38;;;16.41;84.59
80333;BME280;69652;51.864;-2.246;2023-07-09T07:24:37;101768.63;;;16.37;85.10
80333;BME280;69652;51.864;-2.246;2023-07-09T07:27:03;101759.78;;;16.40;86.55
80333;BME280;69652;51.864;-2.246;2023-07-09T07:29:28;101764.78;;;16.38;86.30
80333;BME280;69652;51.864;-2.246;2023-07-09T07:31:54;101782.34;;;16.37;85.74
80333;BME280;69652;51.864;-2.246;2023-07-09T07:34:20;101774.25;;;16.40;85.89
80333;BME280;69652;51.864;-2.246;2023-07-09T07:36:46;101781.84;;;16.43;86.00
80333;BME280;69652;51.864;-2.246;2023-07-09T07:39:12;101777.19;;;16.44;85.48
80333;BME280;69652;51.864;-2.246;2023-07-09T07:41:38;101779.31;;;16.47;85.50
80333;BME280;69652;51.864;-2.246;2023-07-09T07:44:04;101771.59;;;16.57;85.61
80333;BME280;69652;51.864;-2.246;2023-07-09T07:46:29;101761.34;;;16.72;84.95
80333;BME280;69652;51.864;-2.246;2023-07-09T07:48:57;101756.53;;;16.86;82.85
80333;BME280;69652;51.864;-2.246;2023-07-09T07:51:23;101757.34;;;16.95;83.71
80333;BME280;69652;51.864;-2.246;2023-07-09T07:53:48;101744.28;;;16.92;84.05
80333;BME280;69652;51.864;-2.246;2023-07-09T07:56:14;101757.50;;;16.90;85.24
80333;BME280;69652;51.864;-2.246;2023-07-09T07:58:40;101752.31;;;16.80;84.28
80333;BME280;69652;51.864;-2.246;2023-07-09T08:01:05;101752.50;;;16.75;84.03
80333;BME280;69652;51.864;-2.246;2023-07-09T08:03:31;101747.16;;;16.70;83.75
80333;BME280;69652;51.864;-2.246;2023-07-09T08:05:56;101744.41;;;16.70;84.43
80333;BME280;69652;51.864;-2.246;2023-07-09T08:08:22;101747.97;;;16.70;83.10
80333;BME280;69652;51.864;-2.246;2023-07-09T08:10:48;101743.78;;;16.81;84.80
80333;BME280;69652;51.864;-2.246;2023-07-09T08:13:14;101740.72;;;16.91;84.93
80333;BME280;69652;51.864;-2.246;2023-07-09T08:15:39;101736.06;;;17.01;84.52
80333;BME280;69652;51.864;-2.246;2023-07-09T08:18:05;101734.28;;;17.05;81.01
80333;BME280;69652;51.864;-2.246;2023-07-09T08:20:30;101738.63;;;17.23;81.83
80333;BME280;69652;51.864;-2.246;2023-07-09T08:22:58;101744.78;;;17.46;79.67
80333;BME280;69652;51.864;-2.246;2023-07-09T08:25:23;101742.63;;;17.60;79.31
80333;BME280;69652;51.864;-2.246;2023-07-09T08:27:49;101739.09;;;17.59;77.16
80333;BME280;69652;51.864;-2.246;2023-07-09T08:30:14;101744.28;;;17.70;76.49
80333;BME280;69652;51.864;-2.246;2023-07-09T08:32:40;101747.66;;;17.75;75.90
80333;BME280;69652;51.864;-2.246;2023-07-09T08:35:05;101752.84;;;17.68;70.05
80333;BME280;69652;51.864;-2.246;2023-07-09T08:37:31;101754.28;;;17.74;74.00
80333;BME280;69652;51.864;-2.246;2023-07-09T08:39:56;101750.41;;;17.75;74.08
80333;BME280;69652;51.864;-2.246;2023-07-09T08:42:35;101757.66;;;17.80;72.41
80333;BME280;69652;51.864;-2.246;2023-07-09T08:50:39;101742.59;;;18.32;73.72
80333;BME280;69652;51.864;-2.246;2023-07-09T08:53:16;101743.41;;;18.33;72.76
80333;BME280;69652;51.864;-2.246;2023-07-09T08:55:44;101744.63;;;18.06;65.95
80333;BME280;69652;51.864;-2.246;2023-07-09T08:58:21;101750.72;;;18.29;66.20
80333;BME280;69652;51.864;-2.246;2023-07-09T09:03:40;101743.50;;;18.45;65.31
80333;BME280;69652;51.864;-2.246;2023-07-09T09:06:16;101740.13;;;18.98;67.18
80333;BME280;69652;51.864;-2.246;2023-07-09T09:11:46;101749.03;;;19.58;63.19
80333;BME280;69652;51.864;-2.246;2023-07-09T09:14:26;101736.56;;;19.72;63.25
80333;BME280;69652;51.864;-2.246;2023-07-09T09:16:53;101748.75;;;19.83;64.03
80333;BME280;69652;51.864;-2.246;2023-07-09T09:19:27;101735.31;;;19.70;64.29
80333;BME280;69652;51.864;-2.246;2023-07-09T09:22:12;101735.22;;;19.78;64.29
80333;BME280;69652;51.864;-2.246;2023-07-09T09:27:33;101738.69;;;19.55;63.34
80333;BME280;69652;51.864;-2.246;2023-07-09T09:29:58;101729.41;;;20.04;64.53
80333;BME280;69652;51.864;-2.246;2023-07-09T09:32:27;101726.28;;;20.30;64.04
80333;BME280;69652;51.864;-2.246;2023-07-09T09:34:53;101723.22;;;20.56;63.80
80333;BME280;69652;51.864;-2.246;2023-07-09T09:37:26;101716.53;;;20.69;62.86
80333;BME280;69652;51.864;-2.246;2023-07-09T09:39:52;101724.22;;;21.16;62.21
80333;BME280;69652;51.864;-2.246;2023-07-09T09:42:17;101711.03;;;21.21;63.11
80333;BME280;69652;51.864;-2.246;2023-07-09T09:44:44;101715.00;;;21.52;60.08
80333;BME280;69652;51.864;-2.246;2023-07-09T09:47:11;101713.78;;;21.65;55.94
80333;BME280;69652;51.864;-2.246;2023-07-09T09:49:43;101715.53;;;21.42;56.95
80333;BME280;69652;51.864;-2.246;2023-07-09T09:52:16;101716.28;;;21.26;58.48
80333;BME280;69652;51.864;-2.246;2023-07-09T09:54:52;101720.06;;;21.34;58.70
80333;BME280;69652;51.864;-2.246;2023-07-09T09:57:21;101717.03;;;21.39;57.77
80333;BME280;69652;51.864;-2.246;2023-07-09T09:59:47;101716.91;;;21.20;52.01
80333;BME280;69652;51.864;-2.246;2023-07-09T10:02:19;101723.47;;;21.43;52.37
80333;BME280;69652;51.864;-2.246;2023-07-09T10:04:45;101732.09;;;21.42;51.12
80333;BME280;69652;51.864;-2.246;2023-07-09T10:07:27;101723.84;;;21.57;51.15
80333;BME280;69652;51.864;-2.246;2023-07-09T10:09:55;101719.50;;;21.56;50.65
80333;BME280;69652;51.864;-2.246;2023-07-09T10:21:08;101722.47;;;23.12;52.10
80333;BME280;69652;51.864;-2.246;2023-07-09T10:23:41;101714.78;;;23.63;50.86
80333;BME280;69652;51.864;-2.246;2023-07-09T10:26:14;101719.81;;;23.38;52.44
80333;BME280;69652;51.864;-2.246;2023-07-09T10:28:47;101718.84;;;24.38;49.43
80333;BME280;69652;51.864;-2.246;2023-07-09T10:37:17;101698.03;;;24.77;47.20
80333;BME280;69652;51.864;-2.246;2023-07-09T10:39:49;101703.31;;;24.60;48.53
80333;BME280;69652;51.864;-2.246;2023-07-09T10:42:28;101695.41;;;24.62;47.79
80333;BME280;69652;51.864;-2.246;2023-07-09T10:45:02;101704.09;;;23.23;52.48
80333;BME280;69652;51.864;-2.246;2023-07-09T10:48:01;101724.56;;;22.29;54.13
80333;BME280;69652;51.864;-2.246;2023-07-09T10:50:34;101715.69;;;21.77;54.93
80333;BME280;69652;51.864;-2.246;2023-07-09T10:56:17;101726.59;;;20.89;57.05
80333;BME280;69652;51.864;-2.246;2023-07-09T11:01:38;101726.38;;;20.95;58.76
80333;BME280;69652;51.864;-2.246;2023-07-09T11:04:10;101720.34;;;21.05;59.32
80333;BME280;69652;51.864;-2.246;2023-07-09T11:06:40;101736.41;;;20.87;61.21
80333;BME280;69652;51.864;-2.246;2023-07-09T11:09:15;101729.63;;;20.72;62.02
80333;BME280;69652;51.864;-2.246;2023-07-09T11:11:46;101734.91;;;20.65;61.84
80333;BME280;69652;51.864;-2.246;2023-07-09T11:14:27;101736.31;;;20.59;64.20
80333;BME280;69652;51.864;-2.246;2023-07-09T11:16:55;101727.59;;;20.57;64.53
80333;BME280;69652;51.864;-2.246;2023-07-09T11:19:22;101747.66;;;20.33;65.28
80333;BME280;69652;51.864;-2.246;2023-07-09T11:22:04;101753.16;;;20.09;67.58
80333;BME280;69652;51.864;-2.246;2023-07-09T11:24:34;101755.38;;;20.15;68.81
80333;BME280;69652;51.864;-2.246;2023-07-09T11:26:59;101749.56;;;19.84;69.16
80333;BME280;69652;51.864;-2.246;2023-07-09T11:29:26;101752.13;;;19.56;70.29
80333;BME280;69652;51.864;-2.246;2023-07-09T11:31:54;101744.41;;;19.50;71.52
80333;BME280;69652;51.864;-2.246;2023-07-09T11:34:27;101748.03;;;19.74;71.11
80333;BME280;69652;51.864;-2.246;2023-07-09T11:36:59;101748.31;;;19.81;71.20
80333;BME280;69652;51.864;-2.246;2023-07-09T11:39:29;101749.03;;;20.03;69.29
80333;BME280;69652;51.864;-2.246;2023-07-09T11:41:56;101735.03;;;20.32;71.43
80333;BME280;69652;51.864;-2.246;2023-07-09T11:44:28;101738.41;;;20.50;69.84
80333;BME280;69652;51.864;-2.246;2023-07-09T11:49:27;101725.06;;;20.64;69.88
80333;BME280;69652;51.864;-2.246;2023-07-09T11:52:02;101728.25;;;20.66;69.29
80333;BME280;69652;51.864;-2.246;2023-07-09T11:54:34;101719.56;;;20.64;67.74
80333;BME280;69652;51.864;-2.246;2023-07-09T11:57:00;101715.97;;;21.04;67.16
80333;BME280;69652;51.864;-2.246;2023-07-09T11:59:28;101708.19;;;21.77;66.35
80333;BME280;69652;51.864;-2.246;2023-07-09T12:01:54;101719.28;;;22.40;63.81
80333;BME280;69652;51.864;-2.246;2023-07-09T12:04:31;101716.19;;;23.34;61.34
80333;BME280;69652;51.864;-2.246;2023-07-09T12:06:59;101708.34;;;23.79;61.08
80333;BME280;69652;51.864;-2.246;2023-07-09T12:09:41;101705.09;;;23.54;58.41
80333;BME280;69652;51.864;-2.246;2023-07-09T12:12:23;101688.97;;;24.05;60.14
80333;BME280;69652;51.864;-2.246;2023-07-09T12:14:49;101692.28;;;24.67;54.83
80333;BME280;69652;51.864;-2.246;2023-07-09T12:17:15;101681.50;;;24.88;55.53
80333;BME280;69652;51.864;-2.246;2023-07-09T12:19:41;101688.47;;;25.05;55.06
80333;BME280;69652;51.864;-2.246;2023-07-09T12:22:15;101688.66;;;23.87;57.77
80333;BME280;69652;51.864;-2.246;2023-07-09T12:24:43;101686.19;;;24.84;54.90
80333;BME280;69652;51.864;-2.246;2023-07-09T12:29:45;101674.66;;;25.12;54.47
80333;BME280;69652;51.864;-2.246;2023-07-09T12:32:13;101670.44;;;25.62;51.42
80333;BME280;69652;51.864;-2.246;2023-07-09T12:34:39;101661.69;;;25.60;50.44
80333;BME280;69652;51.864;-2.246;2023-07-09T12:37:04;101664.41;;;26.01;53.33
80333;BME280;69652;51.864;-2.246;2023-07-09T12:39:33;101655.69;;;26.60;47.70
80333;BME280;69652;51.864;-2.246;2023-07-09T12:42:02;101667.34;;;26.22;47.49
80333;BME280;69652;51.864;-2.246;2023-07-09T12:44:32;101658.66;;;24.42;50.91
80333;BME280;69652;51.864;-2.246;2023-07-09T12:46:59;101668.56;;;24.17;51.34
80333;BME280;69652;51.864;-2.246;2023-07-09T12:49:30;101665.06;;;23.74;52.72
80333;BME280;69652;51.864;-2.246;2023-07-09T12:52:02;101658.09;;;23.61;53.05
80333;BME280;69652;51.864;-2.246;2023-07-09T12:54:29;101657.81;;;23.66;55.06
80333;BME280;69652;51.864;-2.246;2023-07-09T12:56:55;101667.25;;;23.42;54.60
80333;BME280;69652;51.864;-2.246;2023-07-09T12:59:27;101664.88;;;23.86;55.61
80333;BME280;69652;51.864;-2.246;2023-07-09T13:02:16;101646.47;;;23.74;55.11
80333;BME280;69652;51.864;-2.246;2023-07-09T13:04:42;101651.50;;;23.46;55.50
80333;BME280;69652;51.864;-2.246;2023-07-09T13:09:52;101641.28;;;24.48;54.25
80333;BME280;69652;51.864;-2.246;2023-07-09T13:12:21;101625.31;;;25.02;53.17
80333;BME280;69652;51.864;-2.246;2023-07-09T13:14:53;101628.81;;;24.35;53.84
80333;BME280;69652;51.864;-2.246;2023-07-09T13:17:19;101632.06;;;24.15;54.04
80333;BME280;69652;51.864;-2.246;2023-07-09T13:19:45;101638.75;;;23.87;53.70
80333;BME280;69652;51.864;-2.246;2023-07-09T13:22:14;101640.69;;;23.18;57.86
80333;BME280;69652;51.864;-2.246;2023-07-09T13:24:40;101634.50;;;23.05;58.23
80333;BME280;69652;51.864;-2.246;2023-07-09T13:27:13;101618.88;;;24.31;55.11